メインページ
METAR-TAF:

METAR-TAF

空港 :

ノースベイ, オンタリオ州, カナダ

緯度: 46-21N, 経度: 079-26W, 海抜: 358m

現時点の気象観測

当レポートは1時間13分前の05:00(UTC)に作成
北東の風 6kt
気温 5°C
湿度 81%
気圧 1018 hPa
視程: 14.5km
高度3000ftの曇り

METAR: CYYB 040500Z AUTO 04006KT 9SM OVC030 05/02 A3005 RMK SLP189

時間: 02:13 (06:13 UTC)

予報

当レポートは4時間34分前の01:39(UTC)に作成
予報は04日の 02時(UTC)から 04日の 14時(UTC)まで有効
の風 6kt
視程: 10km
高度2000ftの雲は散在している
高度7000ftの千切れ雲あり
04日の 02時(UTC)から 04日の 10時(UTC)まで一時的に
視程: 4.8km
高度300ftの雲は散在している
高度2000ftの千切れ雲あり
高度7000ftの曇り
確率 30%
04日の 02時(UTC)から 04日の 10時(UTC)まで
視程: 1.6km
高度300ftの千切れ雲あり
04日の 1000時(UTC)から
東/北東の風 7kt
視程: 3.2km
高度400ftの千切れ雲あり
高度1200ftの曇り
確率 30%
04日の 10時(UTC)から 04日の 13時(UTC)まで
視程: 1.2km
04日の 1300時(UTC)から
東/北東の風 6kt
視程: 9.7km
高度400ftの千切れ雲あり
高度1000ftの曇り

TAF: CYYB 040139Z 0402/0414 36006KT P6SM SCT020 BKN070 TEMPO 0402/0410 3SM BR SCT003 BKN020 OVC070 PROB30 0402/0410 1SM BR BKN003 FM041000 06007KT 2SM BR BKN004 OVC012 PROB30 0410/0413 3/4SM BR FM041300 07006KT 6SM BR BKN004 OVC010 RMK NXT FCST BY 040800Z

4,000以上の空港の気象観測と天気予報(METAR報とTAF報)

利用可能な観測所は地図上に黄色い丸と赤い丸で示す。

丸の上にカーソルを重ねると観測所名を参照できる。

次にクリックすると気象観測と天気予報を参照できる。

マップの切り替え:黒色「×」印の緑ボタンをクリックして拡大、「-」印の緑ボタンをクリックして縮小、緑色の三角印をクリックして隣りの地図に切り替え


METAR-TAF: